createdAt,value
2018-03-16T00:00:30.076Z,8.18
2018-03-16T00:01:30.079Z,8.17
2018-03-16T00:02:30.090Z,8.17
2018-03-16T00:03:30.096Z,8.12
2018-03-16T00:04:30.105Z,8.10
2018-03-16T00:05:30.117Z,8.17
2018-03-16T00:06:30.122Z,8.17
2018-03-16T00:07:30.138Z,8.11
2018-03-16T00:08:30.138Z,8.12
2018-03-16T00:09:30.149Z,8.07
2018-03-16T00:10:30.155Z,8.12
2018-03-16T00:11:30.164Z,8.02
2018-03-16T00:12:30.164Z,8.10
2018-03-16T00:13:30.177Z,8.10
2018-03-16T00:14:30.182Z,8.03
2018-03-16T00:15:30.191Z,8.03
2018-03-16T00:16:30.737Z,8.03
2018-03-16T00:17:30.214Z,8.07
2018-03-16T00:18:30.213Z,8.03
2018-03-16T00:19:30.220Z,8.04
2018-03-16T00:20:30.229Z,8.02
2018-03-16T00:21:30.235Z,8.04
2018-03-16T00:22:30.245Z,8.04
2018-03-16T00:23:30.257Z,8.00
2018-03-16T00:24:30.259Z,8.02
2018-03-16T00:25:30.266Z,8.03
2018-03-16T00:26:30.279Z,8.04
2018-03-16T00:27:30.284Z,8.03
2018-03-16T00:28:30.291Z,7.97
2018-03-16T00:29:30.306Z,8.00
2018-03-16T00:30:30.308Z,8.15
2018-03-16T00:31:30.315Z,7.97
2018-03-16T00:32:30.320Z,7.99
2018-03-16T00:33:30.334Z,8.07
2018-03-16T00:34:30.339Z,8.03
2018-03-16T00:35:30.348Z,8.02
2018-03-16T00:36:30.361Z,8.04
2018-03-16T00:37:30.358Z,8.07
2018-03-16T00:38:30.371Z,8.11
2018-03-16T00:39:30.374Z,8.07
2018-03-16T00:40:30.387Z,8.12
2018-03-16T00:41:30.398Z,8.11
2018-03-16T00:42:30.427Z,8.10
2018-03-16T00:43:30.406Z,8.02
2018-03-16T00:44:30.418Z,8.03
2018-03-16T00:45:30.426Z,8.04
2018-03-16T00:46:30.434Z,8.10
2018-03-16T00:47:30.439Z,8.04
2018-03-16T00:48:30.456Z,8.03
2018-03-16T00:49:30.453Z,8.08
2018-03-16T00:50:30.455Z,8.00
2018-03-16T00:51:30.470Z,8.08
2018-03-16T00:52:30.472Z,8.10
2018-03-16T00:53:30.483Z,8.04
2018-03-16T00:54:30.497Z,8.07
2018-03-16T00:55:30.501Z,7.99
2018-03-16T00:56:30.504Z,7.82
2018-03-16T00:57:30.514Z,7.89
2018-03-16T00:58:30.518Z,7.89
2018-03-16T00:59:30.526Z,7.89
2018-03-16T01:00:30.535Z,7.75
2018-03-16T01:01:30.553Z,7.78
2018-03-16T01:02:30.551Z,7.75
2018-03-16T01:03:30.558Z,7.71
2018-03-16T01:04:30.566Z,7.82
2018-03-16T01:05:30.577Z,7.63
2018-03-16T01:06:30.590Z,7.78
2018-03-16T01:07:30.600Z,7.67
2018-03-16T01:08:30.599Z,7.67
2018-03-16T01:09:30.602Z,7.75
2018-03-16T01:10:30.610Z,7.56
2018-03-16T01:11:30.624Z,7.56
2018-03-16T01:12:30.625Z,7.44
2018-03-16T01:13:30.639Z,7.42
2018-03-16T01:14:30.686Z,7.44
2018-03-16T01:15:30.648Z,7.41
2018-03-16T01:16:30.655Z,7.38
2018-03-16T01:17:30.662Z,7.40
2018-03-16T01:18:30.669Z,7.29
2018-03-16T01:19:30.685Z,7.23
2018-03-16T01:20:30.685Z,7.20
2018-03-16T01:21:30.696Z,7.09
2018-03-16T01:22:30.705Z,7.20
2018-03-16T01:23:30.713Z,7.15
2018-03-16T01:24:30.718Z,7.16
2018-03-16T01:25:30.724Z,7.08
2018-03-16T01:26:30.731Z,7.02
2018-03-16T01:27:30.738Z,6.95
2018-03-16T01:28:30.744Z,6.91
2018-03-16T01:29:30.757Z,6.87
2018-03-16T01:30:30.755Z,6.84
2018-03-16T01:31:30.768Z,6.86
2018-03-16T01:32:30.778Z,6.86
2018-03-16T01:33:30.782Z,6.77
2018-03-16T01:34:30.801Z,6.69
2018-03-16T01:35:30.803Z,6.77
2018-03-16T01:36:30.802Z,6.66
2018-03-16T01:37:30.826Z,6.61
2018-03-16T01:38:30.819Z,6.61
2018-03-16T01:39:30.833Z,6.62
2018-03-16T01:40:30.835Z,6.56
2018-03-16T01:41:30.840Z,6.51
2018-03-16T01:42:30.856Z,6.58
2018-03-16T01:43:30.863Z,6.58
2018-03-16T01:44:30.859Z,6.50
2018-03-16T01:45:30.873Z,6.50
2018-03-16T01:46:30.884Z,6.47
2018-03-16T01:47:30.889Z,6.48
2018-03-16T01:48:30.891Z,6.48
2018-03-16T01:49:30.896Z,6.66
2018-03-16T01:50:30.914Z,6.65
2018-03-16T01:51:30.913Z,6.61
2018-03-16T01:52:30.926Z,6.77
2018-03-16T01:53:30.931Z,6.69
2018-03-16T01:54:30.938Z,6.76
2018-03-16T01:55:30.943Z,6.80
2018-03-16T01:56:30.951Z,6.81
2018-03-16T01:57:30.955Z,6.71
2018-03-16T01:58:30.975Z,6.79
2018-03-16T01:59:30.972Z,6.73
2018-03-16T02:00:30.982Z,6.65
2018-03-16T02:01:30.986Z,6.65
2018-03-16T02:02:30.989Z,6.62
2018-03-16T02:03:30.998Z,6.54
2018-03-16T02:04:31.014Z,6.48
2018-03-16T02:05:31.015Z,6.59
2018-03-16T02:06:31.022Z,6.51
2018-03-16T02:07:31.032Z,6.50
2018-03-16T02:08:31.032Z,6.46
2018-03-16T02:09:31.044Z,6.33
2018-03-16T02:10:31.059Z,6.29
2018-03-16T02:11:31.054Z,6.21
2018-03-16T02:12:31.063Z,6.26
2018-03-16T02:13:31.071Z,6.18
2018-03-16T02:14:31.074Z,6.03
2018-03-16T02:15:31.089Z,6.11
2018-03-16T02:16:31.098Z,5.98
2018-03-16T02:17:31.098Z,5.98
2018-03-16T02:18:31.107Z,6.01
2018-03-16T02:19:31.113Z,5.89
2018-03-16T02:20:31.117Z,5.88
2018-03-16T02:21:31.125Z,5.82
2018-03-16T02:22:31.143Z,5.89
2018-03-16T02:23:31.140Z,5.83
2018-03-16T02:24:31.147Z,5.78
2018-03-16T02:25:31.150Z,5.73
2018-03-16T02:26:31.161Z,5.66
2018-03-16T02:27:31.174Z,5.73
2018-03-16T02:28:31.175Z,5.73
2018-03-16T02:29:31.193Z,5.71
2018-03-16T02:30:31.191Z,5.73
2018-03-16T02:31:31.194Z,5.71
2018-03-16T02:32:31.215Z,5.75
2018-03-16T02:33:31.217Z,5.82
2018-03-16T02:34:31.214Z,5.74
2018-03-16T02:35:31.224Z,5.70
2018-03-16T02:36:31.237Z,5.64
2018-03-16T02:37:31.247Z,5.73
2018-03-16T02:38:31.244Z,5.70
2018-03-16T02:39:31.249Z,5.85
2018-03-16T02:40:31.260Z,5.74
2018-03-16T02:41:31.272Z,5.73
2018-03-16T02:42:31.274Z,5.70
2018-03-16T02:43:31.291Z,5.60
2018-03-16T02:44:31.287Z,5.77
2018-03-16T02:45:31.290Z,5.71
2018-03-16T02:46:31.300Z,5.68
2018-03-16T02:47:31.305Z,5.68
2018-03-16T02:48:31.309Z,5.68
2018-03-16T02:49:31.318Z,5.66
2018-03-16T02:50:31.328Z,5.67
2018-03-16T02:51:31.335Z,5.70
2018-03-16T02:52:31.339Z,5.68
2018-03-16T02:53:31.343Z,5.68
2018-03-16T02:54:31.352Z,5.70
2018-03-16T02:55:31.361Z,5.57
2018-03-16T02:56:31.389Z,5.55
2018-03-16T02:57:31.372Z,5.48
2018-03-16T02:58:31.385Z,5.64
2018-03-16T02:59:31.386Z,5.46
2018-03-16T03:00:31.394Z,5.52
2018-03-16T03:01:31.398Z,5.43
2018-03-16T03:02:31.414Z,5.48
2018-03-16T03:03:31.411Z,5.57
2018-03-16T03:04:31.419Z,5.52
2018-03-16T03:05:31.426Z,5.48
2018-03-16T03:06:31.434Z,5.37
2018-03-16T03:07:31.435Z,5.43
2018-03-16T03:08:31.465Z,5.38
2018-03-16T03:09:31.466Z,5.43
2018-03-16T03:10:31.458Z,5.40
2018-03-16T03:11:31.465Z,5.38
2018-03-16T03:12:31.477Z,5.37
2018-03-16T03:13:31.480Z,5.38
2018-03-16T03:14:31.492Z,5.32
2018-03-16T03:15:31.494Z,5.27
2018-03-16T03:16:31.503Z,5.25
2018-03-16T03:17:31.503Z,5.27
2018-03-16T03:18:31.512Z,5.30
2018-03-16T03:19:31.531Z,5.28
2018-03-16T03:20:31.533Z,5.31
2018-03-16T03:21:31.533Z,5.31
2018-03-16T03:22:31.543Z,5.30
2018-03-16T03:23:31.546Z,5.19
2018-03-16T03:24:31.553Z,5.13
2018-03-16T03:25:31.560Z,5.22
2018-03-16T03:26:31.578Z,5.19
2018-03-16T03:27:31.576Z,5.13
2018-03-16T03:28:31.590Z,5.09
2018-03-16T03:29:31.586Z,5.07
2018-03-16T03:30:31.591Z,5.09
2018-03-16T03:31:31.597Z,5.20
2018-03-16T03:32:31.618Z,5.20
2018-03-16T03:33:31.615Z,5.17
2018-03-16T03:34:31.619Z,5.23
2018-03-16T03:35:31.622Z,5.20
2018-03-16T03:36:31.654Z,5.14
2018-03-16T03:37:31.636Z,5.17
2018-03-16T03:38:31.735Z,5.19
2018-03-16T03:39:31.654Z,5.17
2018-03-16T03:40:31.663Z,5.22
2018-03-16T03:41:31.663Z,5.41
2018-03-16T03:42:31.672Z,5.50
2018-03-16T03:43:31.678Z,5.56
2018-03-16T03:44:31.688Z,5.60
2018-03-16T03:45:31.694Z,5.60
2018-03-16T03:46:31.694Z,5.56
2018-03-16T03:47:31.711Z,5.68
2018-03-16T03:48:31.707Z,5.63
2018-03-16T03:49:31.716Z,5.63
2018-03-16T03:50:31.734Z,5.63
2018-03-16T03:51:31.730Z,5.68
2018-03-16T03:52:31.733Z,5.60
2018-03-16T03:53:31.739Z,5.73
2018-03-16T03:54:31.751Z,5.70
2018-03-16T03:55:31.756Z,5.66
2018-03-16T03:56:31.759Z,5.70
2018-03-16T03:57:31.765Z,5.67
2018-03-16T03:58:31.769Z,5.71
2018-03-16T03:59:31.779Z,5.66
2018-03-16T04:00:31.784Z,5.60
2018-03-16T04:01:31.799Z,5.57
2018-03-16T04:02:31.798Z,5.59
2018-03-16T04:03:31.806Z,5.63
2018-03-16T04:04:31.810Z,5.59
2018-03-16T04:05:31.819Z,5.59
2018-03-16T04:06:31.826Z,5.59
2018-03-16T04:07:31.836Z,5.57
2018-03-16T04:08:31.839Z,5.60
2018-03-16T04:09:31.846Z,5.50
2018-03-16T04:10:31.850Z,5.49
2018-03-16T04:11:31.870Z,5.50
2018-03-16T04:12:31.862Z,5.55
2018-03-16T04:13:31.878Z,5.49
2018-03-16T04:14:31.875Z,5.49
2018-03-16T04:15:31.881Z,5.50
2018-03-16T04:16:31.888Z,5.43
2018-03-16T04:17:31.894Z,5.41
2018-03-16T04:18:31.902Z,5.37
2018-03-16T04:19:31.917Z,5.35
2018-03-16T04:20:31.912Z,5.38
2018-03-16T04:21:31.915Z,5.31
2018-03-16T04:22:31.929Z,5.28
2018-03-16T04:23:31.947Z,5.25
2018-03-16T04:24:31.949Z,5.25
2018-03-16T04:25:31.960Z,5.28
2018-03-16T04:26:31.963Z,5.28
2018-03-16T04:27:31.964Z,5.23
2018-03-16T04:28:31.978Z,5.20
2018-03-16T04:29:31.974Z,5.14
2018-03-16T04:30:31.976Z,5.19
2018-03-16T04:31:32.002Z,5.14
2018-03-16T04:32:31.990Z,5.17
2018-03-16T04:33:31.996Z,5.12
2018-03-16T04:34:32.001Z,5.09
2018-03-16T04:35:32.014Z,4.94
2018-03-16T04:36:32.023Z,4.92
2018-03-16T04:37:32.037Z,4.99
2018-03-16T04:38:32.027Z,4.94
2018-03-16T04:39:32.032Z,4.86
2018-03-16T04:40:32.041Z,4.88
2018-03-16T04:41:32.046Z,4.76
2018-03-16T04:42:32.057Z,4.73
2018-03-16T04:43:32.137Z,4.72
2018-03-16T04:44:32.074Z,4.73
2018-03-16T04:45:32.072Z,4.77
2018-03-16T04:46:32.085Z,4.70
2018-03-16T04:47:32.087Z,4.77
2018-03-16T04:48:32.093Z,4.67
2018-03-16T04:49:32.104Z,4.65
2018-03-16T04:50:32.112Z,4.59
2018-03-16T04:51:32.108Z,4.58
2018-03-16T04:52:32.119Z,4.46
2018-03-16T04:53:32.128Z,4.59
2018-03-16T04:54:32.129Z,4.46
2018-03-16T04:55:32.135Z,4.57
2018-03-16T04:56:32.151Z,4.47
2018-03-16T04:57:32.150Z,4.57
2018-03-16T04:58:32.151Z,4.54
2018-03-16T04:59:32.159Z,4.61
2018-03-16T05:00:32.165Z,4.55
2018-03-16T05:01:32.171Z,4.58
2018-03-16T05:02:32.185Z,4.59
2018-03-16T05:03:32.190Z,4.57
2018-03-16T05:04:32.193Z,4.40
2018-03-16T05:05:32.200Z,4.46
2018-03-16T05:06:32.202Z,4.37
2018-03-16T05:07:32.214Z,4.39
2018-03-16T05:08:32.218Z,4.43
2018-03-16T05:09:32.229Z,4.44
2018-03-16T05:10:32.230Z,4.47
2018-03-16T05:11:32.234Z,4.44
2018-03-16T05:12:32.246Z,4.36
2018-03-16T05:13:32.248Z,4.39
2018-03-16T05:14:32.252Z,4.36
2018-03-16T05:15:32.266Z,4.40
2018-03-16T05:16:32.264Z,4.36
2018-03-16T05:17:32.278Z,4.37
2018-03-16T05:18:32.275Z,4.40
2018-03-16T05:19:32.291Z,4.46
2018-03-16T05:20:32.288Z,4.33
2018-03-16T05:21:32.305Z,4.34
2018-03-16T05:22:32.339Z,4.33
2018-03-16T05:23:32.325Z,4.26
2018-03-16T05:24:32.315Z,4.33
2018-03-16T05:25:32.316Z,4.33
2018-03-16T05:26:32.324Z,4.25
2018-03-16T05:27:32.345Z,4.21
2018-03-16T05:28:32.344Z,4.21
2018-03-16T05:29:32.344Z,4.26
2018-03-16T05:30:32.350Z,4.22
2018-03-16T05:31:32.367Z,4.18
2018-03-16T05:32:32.364Z,4.16
2018-03-16T05:33:32.380Z,4.29
2018-03-16T05:34:32.376Z,4.22
2018-03-16T05:35:32.379Z,4.24
2018-03-16T05:36:32.401Z,4.18
2018-03-16T05:37:32.401Z,4.14
2018-03-16T05:38:32.401Z,4.15
2018-03-16T05:39:32.408Z,4.14
2018-03-16T05:40:32.444Z,4.15
2018-03-16T05:41:32.419Z,4.10
2018-03-16T05:42:32.426Z,4.14
2018-03-16T05:43:32.443Z,4.15
2018-03-16T05:44:32.433Z,4.07
2018-03-16T05:45:32.446Z,4.07
2018-03-16T05:46:32.447Z,4.03
2018-03-16T05:47:32.458Z,4.00
2018-03-16T05:48:32.458Z,4.03
2018-03-16T05:49:32.474Z,4.06
2018-03-16T05:50:32.465Z,4.01
2018-03-16T05:51:32.494Z,4.06
2018-03-16T05:52:32.479Z,4.06
2018-03-16T05:53:32.483Z,4.04
2018-03-16T05:54:32.489Z,4.07
2018-03-16T05:55:32.498Z,4.12
2018-03-16T05:56:32.520Z,4.08
2018-03-16T05:57:32.510Z,4.15
2018-03-16T05:58:32.516Z,4.15
2018-03-16T05:59:32.519Z,4.12
2018-03-16T06:00:32.529Z,4.08
2018-03-16T06:01:32.532Z,4.10
2018-03-16T06:02:32.538Z,4.10
2018-03-16T06:03:32.543Z,4.03
2018-03-16T06:04:32.550Z,4.03
2018-03-16T06:05:32.566Z,3.98
2018-03-16T06:06:32.579Z,3.89
2018-03-16T06:07:32.563Z,3.90
2018-03-16T06:08:32.574Z,4.03
2018-03-16T06:09:32.596Z,4.00
2018-03-16T06:10:32.584Z,3.96
2018-03-16T06:11:32.635Z,4.03
2018-03-16T06:12:32.595Z,3.97
2018-03-16T06:13:32.629Z,4.00
2018-03-16T06:14:32.609Z,3.97
2018-03-16T06:15:32.618Z,4.03
2018-03-16T06:16:32.624Z,4.08
2018-03-16T06:17:32.625Z,4.12
2018-03-16T06:18:32.629Z,4.07
2018-03-16T06:19:32.643Z,4.15
2018-03-16T06:20:32.642Z,4.14
2018-03-16T06:21:32.656Z,4.19
2018-03-16T06:22:32.661Z,4.34
2018-03-16T06:23:32.662Z,4.29
2018-03-16T06:24:32.664Z,4.40
2018-03-16T06:25:32.677Z,4.39
2018-03-16T06:26:32.680Z,4.46
2018-03-16T06:27:32.678Z,4.43
2018-03-16T06:28:32.691Z,4.47
2018-03-16T06:29:32.704Z,4.40
2018-03-16T06:30:32.710Z,4.52
2018-03-16T06:31:32.740Z,4.62
2018-03-16T06:32:32.718Z,4.65
2018-03-16T06:33:32.737Z,4.75
2018-03-16T06:34:32.725Z,4.80
2018-03-16T06:35:32.743Z,4.88
2018-03-16T06:36:32.736Z,4.86
2018-03-16T06:37:32.753Z,4.84
2018-03-16T06:38:32.753Z,4.86
2018-03-16T06:39:32.767Z,4.84
2018-03-16T06:40:32.782Z,4.89
2018-03-16T06:41:32.770Z,4.84
2018-03-16T06:42:32.771Z,4.94
2018-03-16T06:43:32.784Z,4.96
2018-03-16T06:44:32.802Z,5.16
2018-03-16T06:45:32.917Z,5.14
2018-03-16T06:46:32.819Z,5.20
2018-03-16T06:47:32.807Z,5.23
2018-03-16T06:48:32.811Z,5.19
2018-03-16T06:49:32.817Z,5.37
2018-03-16T06:50:32.823Z,5.34
2018-03-16T06:51:32.840Z,5.59
2018-03-16T06:52:32.839Z,5.57
2018-03-16T06:53:32.851Z,5.71
2018-03-16T06:54:32.851Z,5.77
2018-03-16T06:55:32.857Z,5.88
2018-03-16T06:56:32.865Z,5.83
2018-03-16T06:57:32.868Z,5.88
2018-03-16T06:58:32.886Z,5.92
2018-03-16T06:59:32.877Z,5.96
2018-03-16T07:00:32.885Z,5.95
2018-03-16T07:01:32.891Z,6.10
2018-03-16T07:02:32.911Z,6.13
2018-03-16T07:03:32.903Z,6.29
2018-03-16T07:04:32.918Z,6.30
2018-03-16T07:05:32.918Z,6.38
2018-03-16T07:06:32.925Z,6.53
2018-03-16T07:07:32.930Z,6.53
2018-03-16T07:08:32.993Z,6.48
2018-03-16T07:09:32.946Z,6.58
2018-03-16T07:10:32.971Z,6.62
2018-03-16T07:11:32.959Z,6.65
2018-03-16T07:12:32.966Z,6.71
2018-03-16T07:13:32.975Z,6.73
2018-03-16T07:14:32.982Z,6.65
2018-03-16T07:15:32.985Z,6.72
2018-03-16T07:16:32.997Z,6.66
2018-03-16T07:17:33.081Z,6.76
2018-03-16T07:18:33.017Z,6.81
2018-03-16T07:19:33.019Z,6.79
2018-03-16T07:20:33.022Z,6.81
2018-03-16T07:21:33.035Z,6.86
2018-03-16T07:22:33.046Z,6.81
2018-03-16T07:23:33.050Z,6.94
2018-03-16T07:24:33.074Z,6.90
2018-03-16T07:25:33.063Z,7.01
2018-03-16T07:26:33.065Z,7.04
2018-03-16T07:27:33.077Z,6.99
2018-03-16T07:28:33.083Z,6.99
2018-03-16T07:29:33.116Z,6.98
2018-03-16T07:30:33.107Z,7.05
2018-03-16T07:31:33.103Z,7.04
2018-03-16T07:32:33.114Z,7.04
2018-03-16T07:33:33.115Z,7.02
2018-03-16T07:34:33.123Z,7.02
2018-03-16T07:35:33.129Z,7.09
2018-03-16T07:36:33.154Z,7.12
2018-03-16T07:37:33.148Z,7.05
2018-03-16T07:38:33.152Z,7.12
2018-03-16T07:39:33.173Z,7.13
2018-03-16T07:40:33.167Z,7.17
2018-03-16T07:41:33.173Z,7.22
2018-03-16T07:42:33.192Z,7.27
2018-03-16T07:43:33.190Z,7.26
2018-03-16T07:44:33.194Z,7.20
2018-03-16T07:45:33.202Z,7.34
2018-03-16T07:46:33.209Z,7.32
2018-03-16T07:47:33.225Z,7.29
2018-03-16T07:48:33.236Z,7.26
2018-03-16T07:49:33.251Z,7.29
2018-03-16T07:50:33.238Z,7.32
2018-03-16T07:51:33.246Z,7.41
2018-03-16T07:52:33.253Z,7.45
2018-03-16T07:53:33.260Z,7.42
2018-03-16T07:54:33.284Z,7.47
2018-03-16T07:55:33.281Z,7.50
2018-03-16T07:56:33.283Z,7.62
2018-03-16T07:57:33.290Z,7.69
2018-03-16T07:58:33.297Z,7.78
2018-03-16T07:59:33.310Z,7.77
2018-03-16T08:00:33.322Z,7.90
2018-03-16T08:01:33.326Z,7.84
2018-03-16T08:02:33.338Z,7.78
2018-03-16T08:03:33.336Z,7.87
2018-03-16T08:04:33.342Z,7.90
2018-03-16T08:05:33.350Z,7.92
2018-03-16T08:06:33.358Z,8.07
2018-03-16T08:07:33.366Z,8.20
2018-03-16T08:08:33.380Z,8.11
2018-03-16T08:09:33.382Z,8.32
2018-03-16T08:10:33.392Z,8.30
2018-03-16T08:11:33.398Z,8.40
2018-03-16T08:12:33.403Z,8.37
2018-03-16T08:13:33.413Z,8.30
2018-03-16T08:14:33.417Z,8.17
2018-03-16T08:15:33.424Z,8.21
2018-03-16T08:16:33.433Z,8.21
2018-03-16T08:17:33.449Z,8.10
2018-03-16T08:18:33.448Z,8.17
2018-03-16T08:19:33.459Z,8.17
2018-03-16T08:20:33.468Z,8.26
2018-03-16T08:21:33.477Z,8.12
2018-03-16T08:22:33.493Z,8.04
2018-03-16T08:23:33.489Z,8.04
2018-03-16T08:24:33.501Z,8.07
2018-03-16T08:25:33.512Z,8.14
2018-03-16T08:26:33.517Z,8.11
2018-03-16T08:27:33.519Z,8.10
2018-03-16T08:28:33.528Z,8.12
2018-03-16T08:29:33.560Z,8.00
2018-03-16T08:30:33.550Z,8.02
2018-03-16T08:31:33.557Z,8.08
2018-03-16T08:32:33.562Z,8.12
2018-03-16T08:33:33.571Z,8.17
2018-03-16T08:34:33.577Z,8.20
2018-03-16T08:35:33.584Z,8.25
2018-03-16T08:36:33.592Z,8.21
2018-03-16T08:37:33.608Z,8.20
2018-03-16T08:38:33.607Z,8.22
2018-03-16T08:39:33.613Z,8.22
2018-03-16T08:40:33.622Z,8.22
2018-03-16T08:41:33.637Z,8.21
2018-03-16T08:42:33.638Z,8.37
2018-03-16T08:43:33.653Z,8.35
2018-03-16T08:44:33.652Z,8.39
2018-03-16T08:45:33.670Z,8.39
2018-03-16T08:46:33.668Z,8.40
2018-03-16T08:47:33.679Z,8.51
2018-03-16T08:48:33.686Z,8.73
2018-03-16T08:49:33.708Z,8.62
2018-03-16T08:50:33.705Z,8.73
2018-03-16T08:51:33.712Z,8.69
2018-03-16T08:52:33.717Z,8.76
2018-03-16T08:53:33.726Z,9.09
2018-03-16T08:54:33.747Z,9.06
2018-03-16T08:55:33.746Z,9.23
2018-03-16T08:56:33.751Z,9.05
2018-03-16T08:57:33.761Z,9.20
2018-03-16T08:58:33.768Z,9.24
2018-03-16T08:59:33.777Z,8.99
2018-03-16T09:00:33.786Z,9.04
2018-03-16T09:01:33.803Z,9.13
2018-03-16T09:02:33.809Z,8.97
2018-03-16T09:03:33.808Z,8.97
2018-03-16T09:04:33.816Z,8.99
2018-03-16T09:05:33.824Z,9.09
2018-03-16T09:06:33.842Z,9.21
2018-03-16T09:07:33.842Z,9.25
2018-03-16T09:08:33.848Z,9.25
2018-03-16T09:09:33.859Z,9.38
2018-03-16T09:10:33.873Z,9.25
2018-03-16T09:11:33.875Z,9.12
2018-03-16T09:12:33.953Z,8.97
2018-03-16T09:13:33.889Z,9.15
2018-03-16T09:14:33.903Z,8.94
2018-03-16T09:15:33.908Z,8.90
2018-03-16T09:16:33.922Z,8.93
2018-03-16T09:17:33.926Z,9.12
2018-03-16T09:18:33.936Z,9.10
2018-03-16T09:19:33.952Z,9.16
2018-03-16T09:20:33.949Z,9.10
2018-03-16T09:21:33.970Z,9.04
2018-03-16T09:22:33.967Z,9.23
2018-03-16T09:23:33.975Z,9.30
2018-03-16T09:24:33.995Z,9.35
2018-03-16T09:25:34.047Z,9.31
2018-03-16T09:26:34.000Z,9.32
2018-03-16T09:27:34.009Z,9.43
2018-03-16T09:28:34.019Z,9.39
2018-03-16T09:29:34.029Z,9.28
2018-03-16T09:30:34.038Z,9.27
2018-03-16T09:31:34.054Z,9.45
2018-03-16T09:32:34.053Z,9.32
2018-03-16T09:33:34.062Z,9.38
2018-03-16T09:34:34.067Z,9.45
2018-03-16T09:35:34.090Z,9.68
2018-03-16T09:36:34.090Z,9.53
2018-03-16T09:37:34.100Z,9.43
2018-03-16T09:38:34.103Z,9.49
2018-03-16T09:39:34.112Z,9.53
2018-03-16T09:40:34.139Z,9.66
2018-03-16T09:41:34.130Z,9.78
2018-03-16T09:42:34.138Z,9.76
2018-03-16T09:43:34.152Z,9.70
2018-03-16T09:44:34.158Z,9.49
2018-03-16T09:45:34.170Z,9.32
2018-03-16T09:46:34.171Z,9.52
2018-03-16T09:47:34.185Z,9.53
2018-03-16T09:48:34.190Z,9.60
2018-03-16T09:49:34.495Z,9.60
2018-03-16T09:50:34.211Z,9.70
2018-03-16T09:51:34.217Z,9.73
2018-03-16T09:52:34.227Z,9.86
2018-03-16T09:53:34.235Z,9.68
2018-03-16T09:54:34.252Z,9.85
2018-03-16T09:55:34.252Z,9.97
2018-03-16T09:56:34.268Z,9.91
2018-03-16T09:57:34.300Z,9.94
2018-03-16T09:58:34.284Z,9.88
2018-03-16T09:59:34.292Z,9.89
2018-03-16T10:00:34.297Z,10.19
2018-03-16T10:01:34.307Z,10.25
2018-03-16T10:02:34.315Z,10.33
2018-03-16T10:03:34.329Z,10.30
2018-03-16T10:04:34.336Z,10.40
2018-03-16T10:05:34.340Z,10.36
2018-03-16T10:06:34.352Z,10.56
2018-03-16T10:07:34.362Z,10.51
2018-03-16T10:08:34.366Z,10.52
2018-03-16T10:09:34.397Z,10.52
2018-03-16T10:10:34.396Z,10.58
2018-03-16T10:11:34.406Z,10.76
2018-03-16T10:12:34.404Z,10.71
2018-03-16T10:13:34.415Z,10.77
2018-03-16T10:14:34.422Z,10.60
2018-03-16T10:15:34.440Z,10.63
2018-03-16T10:16:34.441Z,10.62
2018-03-16T10:17:34.450Z,10.60
2018-03-16T10:18:34.458Z,10.70
2018-03-16T10:19:34.467Z,10.77
2018-03-16T10:20:34.477Z,10.84
2018-03-16T10:21:34.497Z,11.01
2018-03-16T10:22:34.496Z,10.95
2018-03-16T10:23:34.506Z,10.94
2018-03-16T10:24:34.517Z,11.21
2018-03-16T10:25:34.533Z,11.32
2018-03-16T10:26:34.533Z,11.52
2018-03-16T10:27:34.554Z,11.71
2018-03-16T10:28:34.570Z,11.68
2018-03-16T10:29:34.563Z,11.86
2018-03-16T10:30:34.583Z,11.96
2018-03-16T10:31:34.582Z,11.64
2018-03-16T10:32:34.592Z,11.54
2018-03-16T10:33:34.603Z,11.52
2018-03-16T10:34:34.614Z,11.78
2018-03-16T10:35:34.634Z,11.77
2018-03-16T10:36:34.635Z,11.50
2018-03-16T10:37:34.640Z,11.52
2018-03-16T10:38:34.653Z,11.68
2018-03-16T10:39:34.660Z,11.56
2018-03-16T10:40:34.671Z,11.36
2018-03-16T10:41:34.690Z,11.41
2018-03-16T10:42:34.693Z,11.72
2018-03-16T10:43:34.702Z,11.82
2018-03-16T10:44:34.713Z,11.80
2018-03-16T10:45:34.722Z,11.86
2018-03-16T10:46:34.734Z,11.87
2018-03-16T10:47:34.746Z,11.78
2018-03-16T10:48:34.752Z,11.87
2018-03-16T10:49:34.763Z,11.87
2018-03-16T10:50:34.775Z,12.09
2018-03-16T10:51:34.783Z,12.38
2018-03-16T10:52:34.795Z,12.62
2018-03-16T10:53:34.812Z,12.85
2018-03-16T10:54:34.821Z,13.18
2018-03-16T10:55:34.829Z,12.92
2018-03-16T10:56:34.838Z,12.71
2018-03-16T10:57:34.845Z,12.81
2018-03-16T10:58:34.858Z,12.71
2018-03-16T10:59:34.868Z,12.89
2018-03-16T11:00:34.886Z,12.95
2018-03-16T11:01:34.893Z,13.22
2018-03-16T11:02:34.942Z,13.41
2018-03-16T11:03:34.911Z,13.58
2018-03-16T11:04:34.922Z,13.43
2018-03-16T11:05:34.933Z,13.74
2018-03-16T11:06:34.944Z,13.07
2018-03-16T11:07:34.957Z,12.89
2018-03-16T11:08:34.970Z,12.96
2018-03-16T11:09:34.979Z,12.85
2018-03-16T11:10:34.993Z,12.75
2018-03-16T11:11:35.001Z,12.63
2018-03-16T11:12:35.012Z,12.88
2018-03-16T11:13:35.026Z,12.97
2018-03-16T11:14:35.042Z,13.09
2018-03-16T11:15:35.058Z,13.09
2018-03-16T11:16:35.057Z,13.18
2018-03-16T11:17:35.069Z,13.40
2018-03-16T11:18:35.080Z,13.30
2018-03-16T11:19:35.096Z,13.20
2018-03-16T11:20:35.110Z,13.30
2018-03-16T11:21:35.115Z,13.32
2018-03-16T11:22:35.128Z,13.21
2018-03-16T11:23:35.140Z,13.11
2018-03-16T11:24:35.148Z,13.02
2018-03-16T11:25:35.168Z,12.89
2018-03-16T11:26:35.187Z,12.63
2018-03-16T11:27:35.184Z,12.75
2018-03-16T11:28:35.203Z,12.93
2018-03-16T11:29:35.206Z,12.74
2018-03-16T11:30:35.216Z,12.95
2018-03-16T11:31:35.228Z,13.14
2018-03-16T11:32:35.245Z,13.17
2018-03-16T11:33:35.252Z,12.97
2018-03-16T11:34:35.270Z,13.11
2018-03-16T11:35:35.274Z,12.99
2018-03-16T11:36:35.285Z,12.54
2018-03-16T11:37:35.358Z,12.38
2018-03-16T11:38:35.313Z,12.56
2018-03-16T11:39:35.319Z,12.79
2018-03-16T11:40:35.332Z,12.97
2018-03-16T11:41:35.350Z,13.11
2018-03-16T11:42:35.355Z,13.32
2018-03-16T11:43:35.367Z,13.25
2018-03-16T11:44:35.424Z,12.97
2018-03-16T11:45:35.406Z,12.87
2018-03-16T11:46:35.409Z,12.79
2018-03-16T11:47:35.426Z,12.45
2018-03-16T11:48:35.425Z,13.52
2018-03-16T11:49:35.555Z,13.71
2018-03-16T11:50:35.443Z,13.17
2018-03-16T11:51:35.468Z,12.93
2018-03-16T11:52:35.500Z,13.20
2018-03-16T11:53:35.484Z,12.99
2018-03-16T11:54:35.493Z,12.97
2018-03-16T11:55:35.503Z,14.07
2018-03-16T11:56:35.516Z,14.32
2018-03-16T11:57:35.547Z,14.49
2018-03-16T11:58:35.543Z,14.38
2018-03-16T11:59:35.605Z,14.65
2018-03-16T12:00:35.566Z,15.41
2018-03-16T12:01:35.585Z,15.19
2018-03-16T12:02:35.596Z,15.02
2018-03-16T12:03:35.612Z,14.62
2018-03-16T12:04:35.626Z,14.24
2018-03-16T12:05:35.634Z,14.72
2018-03-16T12:06:35.649Z,15.01
2018-03-16T12:07:35.658Z,14.53
2018-03-16T12:08:35.673Z,14.14
2018-03-16T12:09:35.693Z,13.99
2018-03-16T12:10:35.708Z,13.58
2018-03-16T12:11:35.719Z,13.54
2018-03-16T12:12:35.732Z,14.27
2018-03-16T12:13:35.747Z,14.09
2018-03-16T12:14:35.757Z,13.81
2018-03-16T12:15:35.766Z,13.61
2018-03-16T12:16:35.839Z,13.32
2018-03-16T12:17:35.794Z,13.29
2018-03-16T12:18:35.806Z,13.25
2018-03-16T12:19:35.820Z,13.00
2018-03-16T12:20:35.833Z,12.71
2018-03-16T12:21:35.866Z,12.54
2018-03-16T12:22:35.859Z,12.56
2018-03-16T12:23:35.890Z,12.49
2018-03-16T12:24:35.885Z,12.59
2018-03-16T12:25:35.895Z,12.57
2018-03-16T12:26:35.907Z,12.39
2018-03-16T12:27:35.922Z,12.39
2018-03-16T12:28:49.573Z,12.37
2018-03-16T12:29:35.952Z,12.69
2018-03-16T12:30:35.953Z,12.42
2018-03-16T12:31:35.970Z,12.29
2018-03-16T12:32:35.981Z,12.37
2018-03-16T12:33:35.998Z,12.19
2018-03-16T12:34:36.004Z,12.11
2018-03-16T12:35:36.027Z,12.51
2018-03-16T12:36:36.027Z,13.76
2018-03-16T12:37:36.036Z,13.98
2018-03-16T12:38:36.102Z,13.56
2018-03-16T12:39:36.075Z,13.07
2018-03-16T12:40:36.072Z,12.63
2018-03-16T12:41:36.100Z,12.62
2018-03-16T12:42:36.092Z,12.48
2018-03-16T12:43:36.106Z,12.54
2018-03-16T12:44:36.117Z,12.45
2018-03-16T12:45:36.129Z,12.49
2018-03-16T12:46:36.163Z,12.48
2018-03-16T12:47:36.154Z,12.11
2018-03-16T12:48:36.165Z,12.12
2018-03-16T12:49:36.185Z,11.97
2018-03-16T12:50:36.192Z,11.93
2018-03-16T12:51:42.155Z,11.85
2018-03-16T12:52:36.209Z,12.02
2018-03-16T12:53:36.222Z,12.06
2018-03-16T12:54:36.229Z,12.08
2018-03-16T12:55:36.251Z,11.96
2018-03-16T12:56:36.251Z,12.09
2018-03-16T12:57:36.261Z,12.27
2018-03-16T12:58:36.271Z,12.31
2018-03-16T12:59:36.283Z,12.24
2018-03-16T13:00:36.304Z,12.15
2018-03-16T13:01:36.306Z,12.06
2018-03-16T13:02:36.372Z,11.93
2018-03-16T13:03:36.325Z,11.72
2018-03-16T13:04:36.358Z,11.78
2018-03-16T13:05:36.347Z,11.64
2018-03-16T13:06:36.362Z,11.78
2018-03-16T13:07:36.453Z,12.02
2018-03-16T13:08:36.392Z,12.54
2018-03-16T13:09:36.388Z,12.48
2018-03-16T13:10:36.404Z,12.48
2018-03-16T13:11:36.410Z,12.48
2018-03-16T13:12:36.425Z,12.62